createdAt,value
2018-05-02T00:01:09.261Z,4.03
2018-05-02T00:03:37.541Z,4.82
2018-05-02T00:06:05.800Z,4.47
2018-05-02T00:08:34.075Z,3.40
2018-05-02T00:11:02.335Z,3.15
2018-05-02T00:13:30.607Z,3.62
2018-05-02T00:15:59.652Z,3.50
2018-05-02T00:18:27.902Z,2.90
2018-05-02T00:20:56.494Z,3.60
2018-05-02T00:23:24.743Z,3.25
2018-05-02T00:25:53.023Z,3.83
2018-05-02T00:28:21.366Z,4.00
2018-05-02T00:30:49.756Z,3.95
2018-05-02T00:33:18.837Z,4.30
2018-05-02T00:35:47.892Z,2.85
2018-05-02T00:38:16.153Z,3.33
2018-05-02T00:40:44.416Z,4.05
2018-05-02T00:43:12.708Z,3.92
2018-05-02T00:45:40.953Z,5.28
2018-05-02T00:48:09.231Z,5.80
2018-05-02T00:50:37.493Z,5.57
2018-05-02T00:53:06.525Z,5.40
2018-05-02T00:55:34.807Z,5.62
2018-05-02T00:58:03.117Z,6.07
2018-05-02T01:00:31.374Z,5.60
2018-05-02T01:02:59.634Z,6.20
2018-05-02T01:05:27.874Z,5.95
2018-05-02T01:07:56.156Z,5.50
2018-05-02T01:10:24.406Z,6.53
2018-05-02T01:12:53.434Z,6.70
2018-05-02T01:15:21.751Z,6.55
2018-05-02T01:17:50.027Z,7.10
2018-05-02T01:20:18.380Z,7.87
2018-05-02T01:22:46.625Z,7.03
2018-05-02T01:25:14.887Z,6.85
2018-05-02T01:27:43.137Z,6.78
2018-05-02T01:30:12.170Z,7.55
2018-05-02T01:32:40.432Z,6.37
2018-05-02T01:35:09.468Z,5.95
2018-05-02T01:37:37.708Z,6.22
2018-05-02T01:40:05.989Z,5.60
2018-05-02T01:42:34.231Z,5.82
2018-05-02T01:45:03.266Z,6.37
2018-05-02T01:47:31.528Z,6.00
2018-05-02T01:49:59.791Z,6.57
2018-05-02T01:52:28.038Z,7.18
2018-05-02T01:54:56.320Z,6.18
2018-05-02T01:57:25.336Z,7.45
2018-05-02T01:59:53.604Z,5.75
2018-05-02T02:02:22.986Z,7.35
2018-05-02T02:04:52.013Z,6.70
2018-05-02T02:07:20.506Z,6.78
2018-05-02T02:09:48.781Z,7.18
2018-05-02T02:12:17.019Z,7.90
2018-05-02T02:14:46.076Z,7.35
2018-05-02T02:17:14.350Z,7.30
2018-05-02T02:19:42.664Z,6.03
2018-05-02T02:22:10.914Z,5.53
2018-05-02T02:24:39.172Z,5.75
2018-05-02T02:27:07.438Z,5.32
2018-05-02T02:29:35.740Z,5.87
2018-05-02T02:32:03.988Z,5.60
2018-05-02T02:34:32.259Z,5.90
2018-05-02T02:37:00.559Z,5.10
2018-05-02T02:39:28.814Z,5.70
2018-05-02T02:41:57.078Z,6.20
2018-05-02T02:44:25.673Z,6.20
2018-05-02T02:46:53.929Z,5.35
2018-05-02T02:49:22.163Z,5.40
2018-05-02T02:51:51.197Z,6.20
2018-05-02T02:54:19.459Z,5.93
2018-05-02T02:56:47.749Z,6.53
2018-05-02T02:59:15.987Z,7.12
2018-05-02T03:01:45.024Z,6.55
2018-05-02T03:04:13.414Z,6.87
2018-05-02T03:06:41.862Z,6.37
2018-05-02T03:09:10.115Z,7.80
2018-05-02T03:11:39.225Z,6.85
2018-05-02T03:14:07.641Z,6.70
2018-05-02T03:16:35.887Z,7.35
2018-05-02T03:19:04.152Z,8.10
2018-05-02T03:21:32.429Z,6.72
2018-05-02T03:24:00.706Z,7.00
2018-05-02T03:26:29.265Z,6.62
2018-05-02T03:28:58.307Z,7.12
2018-05-02T03:31:26.533Z,6.07
2018-05-02T03:33:55.567Z,6.00
2018-05-02T03:36:23.816Z,4.95
2018-05-02T03:38:52.083Z,5.57
2018-05-02T03:41:21.123Z,4.90
2018-05-02T03:43:49.371Z,5.45
2018-05-02T03:46:17.732Z,5.18
2018-05-02T03:48:45.983Z,4.97
2018-05-02T03:51:14.250Z,4.07
2018-05-02T03:53:42.485Z,3.87
2018-05-02T03:56:10.756Z,5.15
2018-05-02T03:58:38.995Z,5.20
2018-05-02T04:01:25.121Z,4.97
2018-05-02T04:07:18.363Z,5.35
2018-05-02T04:09:47.445Z,5.35
2018-05-02T04:12:17.604Z,6.55
2018-05-02T04:14:45.834Z,5.82
2018-05-02T04:17:14.862Z,5.70
2018-05-02T04:19:43.127Z,6.43
2018-05-02T04:22:11.394Z,6.50
2018-05-02T04:24:40.411Z,6.65
2018-05-02T04:27:08.703Z,7.57
2018-05-02T04:29:37.001Z,7.53
2018-05-02T04:32:05.208Z,6.93
2018-05-02T04:34:34.561Z,6.75
2018-05-02T04:37:02.811Z,6.93
2018-05-02T04:39:31.114Z,7.95
2018-05-02T04:41:59.362Z,6.90
2018-05-02T04:44:27.827Z,6.93
2018-05-02T04:46:56.121Z,7.32
2018-05-02T04:49:24.603Z,8.70
2018-05-02T04:51:52.833Z,7.82
2018-05-02T04:54:21.873Z,6.78
2018-05-02T04:56:50.401Z,7.72
2018-05-02T04:59:18.724Z,8.30
2018-05-02T05:01:46.994Z,9.27
2018-05-02T05:04:15.261Z,8.45
2018-05-02T05:06:43.615Z,8.65
2018-05-02T05:09:11.838Z,7.65
2018-05-02T05:11:40.391Z,7.82
2018-05-02T05:14:08.710Z,8.00
2018-05-02T05:16:38.065Z,7.93
2018-05-02T05:19:06.335Z,7.50
2018-05-02T05:21:34.621Z,8.02
2018-05-02T05:24:02.886Z,7.57
2018-05-02T05:26:31.158Z,8.82
2018-05-02T05:28:59.413Z,7.68
2018-05-02T05:31:28.479Z,8.35
2018-05-02T05:33:56.723Z,8.35
2018-05-02T05:36:25.209Z,8.55
2018-05-02T05:38:53.841Z,9.90
2018-05-02T05:41:22.188Z,9.48
2018-05-02T05:43:51.609Z,9.38
2018-05-02T05:46:19.931Z,8.40
2018-05-02T05:48:48.284Z,8.02
2018-05-02T05:51:17.360Z,7.68
2018-05-02T05:53:45.844Z,10.00
2018-05-02T05:56:14.621Z,8.98
2018-05-02T05:58:42.977Z,10.63
2018-05-02T06:01:11.462Z,10.35
2018-05-02T06:03:39.770Z,10.80
2018-05-02T06:06:08.196Z,11.30
2018-05-02T06:08:36.499Z,10.38
2018-05-02T06:11:04.847Z,10.80
2018-05-02T06:13:33.366Z,9.88
2018-05-02T06:16:01.740Z,10.57
2018-05-02T06:18:30.195Z,10.00
2018-05-02T06:20:58.566Z,11.98
2018-05-02T06:23:26.913Z,9.27
2018-05-02T06:25:55.946Z,10.63
2018-05-02T06:28:24.254Z,10.25
2018-05-02T06:30:52.827Z,11.77
2018-05-02T06:33:21.181Z,11.93
2018-05-02T06:35:49.548Z,11.63
2018-05-02T06:38:18.118Z,12.48
2018-05-02T06:40:47.313Z,11.88
2018-05-02T06:43:15.907Z,12.02
2018-05-02T06:45:44.682Z,10.55
2018-05-02T06:48:13.174Z,13.00
2018-05-02T06:50:41.799Z,12.37
2018-05-02T06:53:11.077Z,14.32
2018-05-02T06:55:39.947Z,12.20
2018-05-02T06:58:08.834Z,12.37
2018-05-02T07:00:37.110Z,12.35
2018-05-02T07:03:05.396Z,12.18
2018-05-02T07:05:33.669Z,11.63
2018-05-02T07:08:01.955Z,10.73
2018-05-02T07:10:30.282Z,9.70
2018-05-02T07:12:59.321Z,12.23
2018-05-02T07:15:32.597Z,12.90
2018-05-02T07:18:00.869Z,11.25
2018-05-02T07:20:29.160Z,13.45
2018-05-02T07:22:57.441Z,11.85
2018-05-02T07:25:25.778Z,10.02
2018-05-02T07:27:54.082Z,11.18
2018-05-02T07:30:22.381Z,10.60
2018-05-02T07:32:50.726Z,12.23
2018-05-02T07:35:18.949Z,10.20
2018-05-02T07:37:47.309Z,11.75
2018-05-02T07:40:16.382Z,12.32
2018-05-02T07:42:44.657Z,11.05
2018-05-02T07:45:12.991Z,9.65
2018-05-02T07:47:42.058Z,10.73
2018-05-02T07:50:10.313Z,10.00
2018-05-02T07:52:38.578Z,10.55
2018-05-02T07:55:06.867Z,9.88
2018-05-02T07:57:35.226Z,10.02
2018-05-02T08:00:03.491Z,9.90
2018-05-02T08:02:31.768Z,8.65
2018-05-02T08:05:00.054Z,8.85
2018-05-02T08:07:28.333Z,9.52
2018-05-02T08:09:56.614Z,10.13
2018-05-02T08:12:24.893Z,9.00
2018-05-02T08:14:53.442Z,9.25
2018-05-02T08:17:22.835Z,11.23
2018-05-02T08:19:51.380Z,7.65
2018-05-02T08:22:19.798Z,9.57
2018-05-02T08:24:48.136Z,10.80
2018-05-02T08:27:16.571Z,11.27
2018-05-02T08:29:44.930Z,9.43
2018-05-02T08:32:13.273Z,9.82
2018-05-02T08:34:47.408Z,9.38
2018-05-02T08:37:15.671Z,10.32
2018-05-02T08:39:44.013Z,9.85
2018-05-02T08:42:12.374Z,9.75
2018-05-02T08:44:40.728Z,9.63
2018-05-02T08:47:09.088Z,9.70
2018-05-02T08:49:37.483Z,10.88
2018-05-02T08:52:05.777Z,9.25
2018-05-02T08:54:34.092Z,9.35
2018-05-02T08:57:02.572Z,9.60
2018-05-02T08:59:31.648Z,9.77
2018-05-02T09:01:59.992Z,9.13
2018-05-02T09:04:28.583Z,11.23
2018-05-02T09:06:57.887Z,9.82
2018-05-02T09:09:26.282Z,10.45
2018-05-02T09:11:54.733Z,9.32
2018-05-02T09:14:23.158Z,9.95
2018-05-02T09:16:51.468Z,11.77
2018-05-02T09:19:19.776Z,9.98
2018-05-02T09:21:48.201Z,10.63
2018-05-02T09:24:16.717Z,10.32
2018-05-02T09:26:45.007Z,10.05
2018-05-02T09:29:13.308Z,11.00
2018-05-02T09:31:41.747Z,9.75
2018-05-02T09:34:10.032Z,8.20
2018-05-02T09:39:12.870Z,9.60
2018-05-02T09:41:41.944Z,10.30
2018-05-02T09:44:10.208Z,9.25
2018-05-02T09:46:38.525Z,9.43
2018-05-02T09:49:07.664Z,10.40
2018-05-02T09:51:36.060Z,9.50
2018-05-02T09:54:04.392Z,9.25
2018-05-02T09:56:32.792Z,9.60
2018-05-02T09:59:01.649Z,10.82
2018-05-02T10:01:30.730Z,8.82
2018-05-02T10:03:59.928Z,9.70
2018-05-02T10:06:28.957Z,9.30
2018-05-02T10:08:57.284Z,8.95
2018-05-02T10:11:25.568Z,8.07
2018-05-02T10:13:54.619Z,8.27
2018-05-02T10:16:23.006Z,9.00
2018-05-02T10:18:51.541Z,8.60
2018-05-02T10:21:19.886Z,8.30
2018-05-02T10:23:48.202Z,7.37
2018-05-02T10:26:16.827Z,8.55
2018-05-02T10:28:45.088Z,8.50
2018-05-02T10:31:13.369Z,7.05
2018-05-02T10:33:41.743Z,7.40
2018-05-02T10:36:10.055Z,6.47
2018-05-02T10:38:38.438Z,7.10
2018-05-02T10:41:07.581Z,6.40
2018-05-02T10:43:35.889Z,4.97
2018-05-02T10:46:04.521Z,5.20
2018-05-02T10:48:32.817Z,4.97
2018-05-02T10:51:01.103Z,5.03
2018-05-02T10:53:29.414Z,5.33
2018-05-02T10:55:57.770Z,4.40
2018-05-02T10:58:26.062Z,4.93
2018-05-02T11:00:54.398Z,3.50
2018-05-02T11:03:22.737Z,4.62
2018-05-02T11:05:51.065Z,3.83
2018-05-02T11:08:19.392Z,3.62
2018-05-02T11:10:48.455Z,4.57
2018-05-02T11:13:16.758Z,3.83
2018-05-02T11:15:46.048Z,3.62
2018-05-02T11:18:15.216Z,3.33
2018-05-02T11:20:43.518Z,3.10
2018-05-02T11:23:12.561Z,4.05
2018-05-02T11:25:40.915Z,4.62
2018-05-02T11:28:09.647Z,4.30
2018-05-02T11:30:38.074Z,3.90
2018-05-02T11:33:06.523Z,4.20
2018-05-02T11:35:34.912Z,4.35
2018-05-02T11:38:03.954Z,4.33
2018-05-02T11:40:32.422Z,4.97
2018-05-02T11:43:00.661Z,4.83
2018-05-02T11:45:29.769Z,3.57
2018-05-02T11:47:58.106Z,5.40
2018-05-02T11:50:26.551Z,4.57
2018-05-02T11:52:54.973Z,4.10
2018-05-02T11:55:23.339Z,3.62
2018-05-02T11:57:51.852Z,4.20
2018-05-02T12:00:20.193Z,4.10
2018-05-02T12:02:48.506Z,3.70
2018-05-02T12:05:17.578Z,4.37
2018-05-02T12:07:45.931Z,3.47
2018-05-02T12:10:14.273Z,3.30
2018-05-02T12:12:42.768Z,3.77
2018-05-02T12:15:11.378Z,3.70
2018-05-02T12:17:40.607Z,4.00
2018-05-02T12:20:09.636Z,3.60
2018-05-02T12:22:37.935Z,3.80
2018-05-02T12:25:06.195Z,4.10
2018-05-02T12:27:34.482Z,4.37
2018-05-02T12:30:02.884Z,3.60
2018-05-02T12:32:31.246Z,4.13
2018-05-02T12:35:00.816Z,3.80
2018-05-02T12:40:20.657Z,3.30
2018-05-02T12:42:51.929Z,3.23
2018-05-02T12:45:21.232Z,3.00
2018-05-02T12:47:53.361Z,3.30
2018-05-02T12:50:22.005Z,4.37
2018-05-02T12:52:51.104Z,3.30
2018-05-02T12:55:19.723Z,3.30
2018-05-02T12:57:49.159Z,2.53
2018-05-02T13:00:18.418Z,3.00
2018-05-02T13:02:46.792Z,3.10
2018-05-02T13:05:15.892Z,3.37
2018-05-02T13:07:45.606Z,3.20
2018-05-02T13:10:14.236Z,2.63
2018-05-02T13:12:42.559Z,3.40
2018-05-02T13:15:11.125Z,3.03
2018-05-02T13:17:39.487Z,2.70
2018-05-02T13:20:08.995Z,3.50
2018-05-02T13:22:37.333Z,3.77
2018-05-02T13:25:06.485Z,2.90
2018-05-02T13:27:35.707Z,2.80
2018-05-02T13:30:04.247Z,2.47
2018-05-02T13:32:32.883Z,3.20
2018-05-02T13:35:01.731Z,3.20
2018-05-02T13:37:30.300Z,3.40
2018-05-02T13:39:59.803Z,2.70
2018-05-02T13:42:28.145Z,2.50
2018-05-02T13:44:56.835Z,2.20
2018-05-02T13:47:25.410Z,2.43
2018-05-02T13:52:28.976Z,2.83
2018-05-02T13:54:57.507Z,2.13
2018-05-02T13:57:26.591Z,2.40
2018-05-02T13:59:55.025Z,2.50
2018-05-02T14:02:23.373Z,2.00
2018-05-02T14:04:51.788Z,2.53
2018-05-02T14:07:20.950Z,2.23
2018-05-02T14:09:49.772Z,2.53
2018-05-02T14:12:18.995Z,2.00
2018-05-02T14:14:47.388Z,2.00
2018-05-02T14:17:16.997Z,1.43
2018-05-02T14:19:45.654Z,1.70
2018-05-02T14:22:14.006Z,2.00
2018-05-02T14:24:44.076Z,2.40
2018-05-02T14:27:12.379Z,1.80
2018-05-02T14:29:40.791Z,1.80
2018-05-02T14:32:09.137Z,1.40
2018-05-02T14:34:37.895Z,1.80
2018-05-02T14:37:06.352Z,1.80
2018-05-02T14:39:34.922Z,1.93
2018-05-02T14:42:03.485Z,1.53
2018-05-02T14:44:32.727Z,1.77
2018-05-02T14:47:01.849Z,1.43
2018-05-02T14:49:30.360Z,1.73
2018-05-02T14:51:59.573Z,1.50
2018-05-02T14:54:28.554Z,1.53
2018-05-02T14:56:57.469Z,1.43
2018-05-02T14:59:26.854Z,1.60
2018-05-02T15:01:55.672Z,1.57
2018-05-02T15:04:24.293Z,1.43
2018-05-02T15:06:52.834Z,1.20
2018-05-02T15:09:22.309Z,1.20
2018-05-02T15:11:51.071Z,1.47
2018-05-02T15:14:19.647Z,2.20
2018-05-02T15:16:48.175Z,2.10
2018-05-02T15:19:16.946Z,2.07
2018-05-02T15:21:45.352Z,1.93
2018-05-02T15:24:14.003Z,1.23
2018-05-02T15:26:42.364Z,1.80
2018-05-02T15:29:11.143Z,1.37
2018-05-02T15:31:39.482Z,2.50
2018-05-02T15:34:09.031Z,1.57
2018-05-02T15:36:38.060Z,2.23
2018-05-02T15:39:07.254Z,2.57
2018-05-02T15:41:35.998Z,2.10
2018-05-02T15:44:04.345Z,1.90
2018-05-02T15:46:33.695Z,2.00
2018-05-02T15:49:02.207Z,2.23
2018-05-02T15:51:30.760Z,2.27
2018-05-02T15:53:59.748Z,1.80
2018-05-02T15:56:28.417Z,2.30
2018-05-02T15:58:56.983Z,2.20
2018-05-02T16:01:25.349Z,2.40
2018-05-02T16:03:54.118Z,1.60
2018-05-02T16:06:23.567Z,1.87
2018-05-02T16:08:52.399Z,1.50
2018-05-02T16:11:21.716Z,2.03
2018-05-02T16:13:50.317Z,1.55
2018-05-02T16:16:19.886Z,1.85
2018-05-02T16:18:48.499Z,2.63
2018-05-02T16:21:17.540Z,1.70
2018-05-02T16:23:45.996Z,2.40
2018-05-02T16:26:14.582Z,2.28
2018-05-02T16:28:43.201Z,2.40
2018-05-02T16:31:12.618Z,3.30
2018-05-02T16:33:41.006Z,2.30
2018-05-02T16:36:09.516Z,2.17
2018-05-02T16:38:37.979Z,1.95
2018-05-02T16:41:06.649Z,1.97
2018-05-02T16:43:35.147Z,2.40
2018-05-02T16:46:03.888Z,1.77
2018-05-02T16:48:32.277Z,2.30
2018-05-02T16:51:00.867Z,2.10
2018-05-02T16:53:29.523Z,2.40
2018-05-02T16:55:58.131Z,1.55
2018-05-02T16:58:28.174Z,2.62
2018-05-02T17:00:56.961Z,2.17
2018-05-02T17:03:25.970Z,2.03
2018-05-02T17:05:54.594Z,1.80
2018-05-02T17:08:23.168Z,2.30
2018-05-02T17:10:51.646Z,2.40
2018-05-02T17:13:20.885Z,2.08
2018-05-02T17:15:49.461Z,1.87
2018-05-02T17:18:18.130Z,2.70
2018-05-02T17:20:47.450Z,1.90
2018-05-02T17:23:15.999Z,1.60
2018-05-02T17:25:44.884Z,2.58
2018-05-02T17:28:13.215Z,2.67
2018-05-02T17:30:41.829Z,3.47
2018-05-02T17:33:10.392Z,3.65
2018-05-02T17:35:39.417Z,2.45
2018-05-02T17:38:07.993Z,1.77
2018-05-02T17:40:37.303Z,2.45
2018-05-02T17:43:05.746Z,2.35
2018-05-02T17:45:34.106Z,2.00
2018-05-02T17:48:07.901Z,1.50
2018-05-02T17:50:36.630Z,2.10
2018-05-02T17:53:05.647Z,1.87
2018-05-02T17:55:34.208Z,1.40
2018-05-02T17:58:03.086Z,1.62
2018-05-02T18:00:31.703Z,1.80
2018-05-02T18:03:00.624Z,2.00
2018-05-02T18:05:29.486Z,1.92
2018-05-02T18:07:58.859Z,1.80
2018-05-02T18:10:27.565Z,1.80
2018-05-02T18:12:56.050Z,1.60
2018-05-02T18:15:24.503Z,2.55
2018-05-02T18:17:52.905Z,2.15
2018-05-02T18:20:21.503Z,2.00
2018-05-02T18:22:50.029Z,2.87
2018-05-02T18:25:19.303Z,2.92
2018-05-02T18:27:48.081Z,2.00
2018-05-02T18:30:17.410Z,1.62
2018-05-02T18:32:46.728Z,1.90
2018-05-02T18:35:15.237Z,1.85
2018-05-02T18:37:43.821Z,2.55
2018-05-02T18:40:12.288Z,2.10
2018-05-02T18:42:40.835Z,1.60
2018-05-02T18:45:09.305Z,1.85
2018-05-02T18:47:38.304Z,4.55
2018-05-02T18:50:06.685Z,4.57
2018-05-02T18:52:35.229Z,2.85
2018-05-02T18:55:04.613Z,2.67
2018-05-02T18:57:33.905Z,2.78
2018-05-02T19:00:03.416Z,2.30
2018-05-02T19:02:32.366Z,2.30
2018-05-02T19:05:01.010Z,2.40
2018-05-02T19:07:30.536Z,2.40
2018-05-02T19:09:58.929Z,2.40
2018-05-02T19:12:27.308Z,2.67
2018-05-02T19:14:55.827Z,2.47
2018-05-02T19:17:24.615Z,1.50
2018-05-02T19:19:59.134Z,2.50
2018-05-02T19:22:27.422Z,2.35
2018-05-02T19:25:01.171Z,1.98
2018-05-02T19:27:34.617Z,2.00
2018-05-02T19:30:02.883Z,1.98
2018-05-02T19:32:36.764Z,1.42
2018-05-02T19:35:05.061Z,1.70
2018-05-02T19:37:33.355Z,2.22
2018-05-02T19:40:07.860Z,1.50
2018-05-02T19:42:41.719Z,2.10
2018-05-02T19:45:09.915Z,1.80
2018-05-02T19:47:38.218Z,1.85
2018-05-02T19:50:06.473Z,1.90
2018-05-02T19:52:40.463Z,1.85
2018-05-02T19:55:08.738Z,1.75
2018-05-02T19:57:37.278Z,2.15
2018-05-02T20:00:06.343Z,2.70
2018-05-02T20:05:38.865Z,2.00
2018-05-02T20:08:13.388Z,2.20
2018-05-02T20:10:47.715Z,2.50
2018-05-02T20:13:21.561Z,2.58
2018-05-02T20:15:49.839Z,2.33
2018-05-02T20:18:18.137Z,2.67
2018-05-02T20:20:46.474Z,2.70
2018-05-02T20:23:14.757Z,2.05
2018-05-02T20:25:43.031Z,2.22
2018-05-02T20:28:11.321Z,2.40
2018-05-02T20:30:39.643Z,2.30
2018-05-02T20:33:08.666Z,2.50
2018-05-02T20:35:36.979Z,2.35
2018-05-02T20:38:05.228Z,2.15
2018-05-02T20:40:33.515Z,2.83
2018-05-02T20:43:01.775Z,1.83
2018-05-02T20:45:30.087Z,2.00
2018-05-02T20:47:58.622Z,2.30
2018-05-02T20:50:26.911Z,1.85
2018-05-02T20:52:55.187Z,2.70
2018-05-02T20:55:23.508Z,2.05
2018-05-02T20:57:51.799Z,2.28
2018-05-02T21:00:20.093Z,3.25
2018-05-02T21:02:48.386Z,2.25
2018-05-02T21:05:16.686Z,2.70
2018-05-02T21:07:44.945Z,2.85
2018-05-02T21:10:13.226Z,2.80
2018-05-02T21:12:41.509Z,2.10
2018-05-02T21:15:09.929Z,1.95
2018-05-02T21:17:38.966Z,2.10
2018-05-02T21:20:07.256Z,1.92
2018-05-02T21:22:35.553Z,1.85
2018-05-02T21:25:04.604Z,2.55
2018-05-02T21:27:32.880Z,1.87
2018-05-02T21:30:01.272Z,2.10
2018-05-02T21:32:29.580Z,2.40
2018-05-02T21:34:58.603Z,2.50
2018-05-02T21:37:26.902Z,2.40
2018-05-02T21:39:55.201Z,2.42
2018-05-02T21:42:23.466Z,2.10
2018-05-02T21:44:51.740Z,2.30
2018-05-02T21:47:20.011Z,2.50
2018-05-02T21:49:48.290Z,2.37
2018-05-02T21:52:16.593Z,2.35
2018-05-02T21:54:44.850Z,1.92
2018-05-02T21:57:13.133Z,2.30
2018-05-02T21:59:41.446Z,1.87
2018-05-02T22:02:10.524Z,1.80
2018-05-02T22:04:39.559Z,2.08
2018-05-02T22:07:07.813Z,1.62
2018-05-02T22:09:36.078Z,1.75
2018-05-02T22:12:04.418Z,1.52
2018-05-02T22:14:32.712Z,2.05
2018-05-02T22:17:01.744Z,2.10
2018-05-02T22:19:30.044Z,2.20
2018-05-02T22:21:58.311Z,1.55
2018-05-02T22:24:26.599Z,2.40
2018-05-02T22:26:54.864Z,2.05
2018-05-02T22:29:23.141Z,2.33
2018-05-02T22:31:51.414Z,2.60
2018-05-02T22:34:19.672Z,2.45
2018-05-02T22:36:47.946Z,2.40
2018-05-02T22:39:16.215Z,2.40
2018-05-02T22:41:44.496Z,2.08
2018-05-02T22:44:12.776Z,2.10
2018-05-02T22:46:41.037Z,1.77
2018-05-02T22:49:10.102Z,2.30
2018-05-02T22:51:39.165Z,3.10
2018-05-02T22:54:08.766Z,1.92
2018-05-02T22:56:37.042Z,2.30
2018-05-02T22:59:05.325Z,2.28
2018-05-02T23:01:33.622Z,2.30
2018-05-02T23:04:02.670Z,2.37
2018-05-02T23:06:30.989Z,2.50
2018-05-02T23:08:59.260Z,1.73
2018-05-02T23:11:27.522Z,2.15
2018-05-02T23:13:55.817Z,2.30
2018-05-02T23:16:24.854Z,2.72
2018-05-02T23:18:53.129Z,2.50
2018-05-02T23:21:21.411Z,2.17
2018-05-02T23:23:49.711Z,2.00
2018-05-02T23:26:18.027Z,2.25
2018-05-02T23:28:47.070Z,2.53
2018-05-02T23:31:15.323Z,2.00
2018-05-02T23:33:43.614Z,1.92
2018-05-02T23:36:12.116Z,1.90
2018-05-02T23:38:40.383Z,2.25
2018-05-02T23:41:08.670Z,2.17
2018-05-02T23:43:36.941Z,2.50
2018-05-02T23:46:05.255Z,1.90
2018-05-02T23:48:33.529Z,1.85
2018-05-02T23:51:01.825Z,2.15
2018-05-02T23:53:30.081Z,2.08
2018-05-02T23:55:58.354Z,1.83
2018-05-02T23:58:26.650Z,1.98
